Time,TemperatureF,DewpointF,PressureIn,WindDirection,WindDirectionDegrees,WindSpeedMPH,WindSpeedGustMPH,Humidity,HourlyPrecipIn,Conditions,Clouds,dailyrainin,SoftwareType,DateUTC
2013-03-10 00:09:00,24.4,20.8,29.84,North,0,0.0,-999.0,86,-99.99,,,0.00,Acu-Link.com,2013-03-10 07:09:00,
2013-03-10 00:25:00,24.6,21.3,29.84,North,0,0.0,-999.0,87,-99.99,,,0.00,Acu-Link.com,2013-03-10 07:25:00,
2013-03-10 00:40:00,24.8,21.5,29.85,North,0,0.0,-999.0,87,-99.99,,,0.00,Acu-Link.com,2013-03-10 07:40:00,
2013-03-10 00:55:00,25.2,21.9,29.85,North,0,0.0,-999.0,87,-99.99,,,0.00,Acu-Link.com,2013-03-10 07:55:00,
2013-03-10 01:11:00,25.3,22.0,29.85,North,0,0.0,-999.0,87,-99.99,,,0.00,Acu-Link.com,2013-03-10 08:11:00,
2013-03-10 01:26:00,25.3,22.0,29.85,North,0,0.0,-999.0,87,-99.99,,,0.00,Acu-Link.com,2013-03-10 08:26:00,
2013-03-10 01:41:00,25.0,21.7,29.85,North,0,0.0,-999.0,87,-99.99,,,0.00,Acu-Link.com,2013-03-10 08:41:00,
2013-03-10 01:56:00,25.0,21.7,29.85,North,0,0.0,-999.0,87,-99.99,,,0.00,Acu-Link.com,2013-03-10 08:56:00,
2013-03-10 03:11:00,25.0,21.7,29.85,WSW,247,0.0,-999.0,87,-99.99,,,0.00,Acu-Link.com,2013-03-10 09:11:00,
2013-03-10 03:26:00,25.0,21.7,29.84,WSW,247,0.0,-999.0,87,-99.99,,,0.00,Acu-Link.com,2013-03-10 09:26:00,
2013-03-10 03:42:00,24.8,21.8,29.84,WSW,247,0.0,-999.0,88,-99.99,,,0.00,Acu-Link.com,2013-03-10 09:42:00,
2013-03-10 03:57:00,24.3,21.3,29.83,WSW,247,0.0,-999.0,88,-99.99,,,0.00,Acu-Link.com,2013-03-10 09:57:00,
2013-03-10 04:12:00,23.0,19.7,29.84,WSW,247,0.0,-999.0,87,-99.99,,,0.00,Acu-Link.com,2013-03-10 10:12:00,
2013-03-10 04:28:00,23.2,19.9,29.85,WSW,247,0.0,-999.0,87,-99.99,,,0.00,Acu-Link.com,2013-03-10 10:28:00,
2013-03-10 04:43:00,23.2,19.9,29.84,SW,225,0.0,-999.0,87,-99.99,,,0.00,Acu-Link.com,2013-03-10 10:43:00,
2013-03-10 04:58:00,22.5,19.2,29.86,SW,225,0.0,-999.0,87,-99.99,,,0.00,Acu-Link.com,2013-03-10 10:58:00,
2013-03-10 05:15:00,21.7,18.2,29.85,SW,225,0.0,-999.0,86,-99.99,,,0.00,Acu-Link.com,2013-03-10 11:15:00,
2013-03-10 05:31:00,21.9,18.4,29.86,SW,225,0.0,-999.0,86,-99.99,,,0.00,Acu-Link.com,2013-03-10 11:31:00,
2013-03-10 05:46:00,21.6,17.8,29.87,SW,225,4.2,-999.0,85,-99.99,,,0.00,Acu-Link.com,2013-03-10 11:46:00,
2013-03-10 06:01:00,20.8,16.2,29.88,SW,225,2.2,-999.0,82,-99.99,,,0.00,Acu-Link.com,2013-03-10 12:01:00,
2013-03-10 06:16:00,20.5,16.2,29.88,SW,225,3.7,-999.0,83,-99.99,,,0.00,Acu-Link.com,2013-03-10 12:16:00,
2013-03-10 06:31:00,19.4,14.8,29.90,SW,225,2.2,-999.0,82,-99.99,,,0.00,Acu-Link.com,2013-03-10 12:31:00,
2013-03-10 06:46:00,18.7,13.9,29.92,SW,225,1.7,-999.0,81,-99.99,,,0.00,Acu-Link.com,2013-03-10 12:46:00,
2013-03-10 07:01:00,18.3,13.2,29.91,SW,225,2.7,-999.0,80,-99.99,,,0.00,Acu-Link.com,2013-03-10 13:01:00,
2013-03-10 07:17:00,18.5,13.7,29.93,SE,135,2.7,-999.0,81,-99.99,,,0.00,Acu-Link.com,2013-03-10 13:17:00,
2013-03-10 07:32:00,19.4,14.3,29.93,SSE,157,2.2,-999.0,80,-99.99,,,0.00,Acu-Link.com,2013-03-10 13:32:00,
2013-03-10 07:47:00,19.4,14.3,29.94,SSE,157,0.0,-999.0,80,-99.99,,,0.00,Acu-Link.com,2013-03-10 13:47:00,
2013-03-10 08:03:00,20.3,14.6,29.95,SSW,202,2.7,-999.0,78,-99.99,,,0.00,Acu-Link.com,2013-03-10 14:03:00,
2013-03-10 08:18:00,25.2,17.8,29.95,SSW,202,2.2,-999.0,73,-99.99,,,0.00,Acu-Link.com,2013-03-10 14:18:00,
2013-03-10 08:33:00,28.2,19.7,29.96,SSW,202,2.2,-999.0,70,-99.99,,,0.00,Acu-Link.com,2013-03-10 14:33:00,
2013-03-10 08:48:00,28.4,19.9,29.97,SSW,202,1.7,-999.0,70,-99.99,,,0.00,Acu-Link.com,2013-03-10 14:48:00,
2013-03-10 09:04:00,31.6,22.3,29.96,SSW,202,2.7,-999.0,68,-99.99,,,0.00,Acu-Link.com,2013-03-10 15:04:00,
2013-03-10 09:19:00,29.3,19.7,29.97,SW,225,4.2,-999.0,67,-99.99,,,0.00,Acu-Link.com,2013-03-10 15:19:00,
2013-03-10 09:34:00,30.2,21.3,29.97,SW,225,3.2,-999.0,69,-99.99,,,0.00,Acu-Link.com,2013-03-10 15:34:00,
2013-03-10 09:49:00,31.6,21.9,29.96,WSW,247,2.7,-999.0,67,-99.99,,,0.00,Acu-Link.com,2013-03-10 15:49:00,
2013-03-10 10:05:00,32.9,21.7,29.97,WSW,247,2.7,-999.0,63,-99.99,,,0.00,Acu-Link.com,2013-03-10 16:05:00,
2013-03-10 10:20:00,38.8,22.2,29.98,South,180,2.2,-999.0,51,-99.99,,,0.00,Acu-Link.com,2013-03-10 16:20:00,
2013-03-10 10:35:00,45.9,25.2,29.97,SW,225,4.2,-999.0,44,-99.99,,,0.01,Acu-Link.com,2013-03-10 16:35:00,
2013-03-10 10:51:00,43.7,21.6,29.97,SSW,202,5.3,-999.0,41,-99.99,,,0.01,Acu-Link.com,2013-03-10 16:51:00,
2013-03-10 11:06:00,40.3,24.5,29.98,SW,225,6.3,-999.0,53,-99.99,,,0.03,Acu-Link.com,2013-03-10 17:06:00,
2013-03-10 11:21:00,31.5,18.8,29.97,West,270,6.8,-999.0,59,-99.99,,,0.03,Acu-Link.com,2013-03-10 17:21:00,
2013-03-10 11:36:00,33.4,19.8,29.98,NW,315,7.3,-999.0,57,-99.99,,,0.03,Acu-Link.com,2013-03-10 17:36:00,
2013-03-10 11:52:00,43.2,25.3,29.99,NNW,337,0.0,-999.0,49,-99.99,,,0.04,Acu-Link.com,2013-03-10 17:52:00,
2013-03-10 12:07:00,40.6,20.4,29.97,SSW,202,5.3,-999.0,44,-99.99,,,0.05,Acu-Link.com,2013-03-10 18:07:00,
2013-03-10 12:22:00,37.2,21.2,29.97,West,270,3.2,-999.0,52,-99.99,,,0.06,Acu-Link.com,2013-03-10 18:22:00,
2013-03-10 12:37:00,43.3,24.4,29.96,SSW,202,1.7,-999.0,47,-99.99,,,0.06,Acu-Link.com,2013-03-10 18:37:00,
2013-03-10 12:52:00,34.9,16.7,29.97,West,270,7.8,-999.0,47,-99.99,,,0.07,Acu-Link.com,2013-03-10 18:52:00,
2013-03-10 13:07:00,34.9,17.7,29.97,WNW,292,6.8,-999.0,49,-99.99,,,0.07,Acu-Link.com,2013-03-10 19:07:00,
2013-03-10 13:22:00,38.5,19.5,29.95,NW,315,6.8,-999.0,46,-99.99,,,0.07,Acu-Link.com,2013-03-10 19:22:00,
2013-03-10 13:38:00,38.5,19.0,29.95,WNW,292,9.4,-999.0,45,-99.99,,,0.07,Acu-Link.com,2013-03-10 19:38:00,
2013-03-10 13:53:00,39.2,18.6,29.95,West,270,10.4,-999.0,43,-99.99,,,0.07,Acu-Link.com,2013-03-10 19:53:00,
2013-03-10 14:08:00,39.6,19.5,29.94,WNW,292,6.8,-999.0,44,-99.99,,,0.07,Acu-Link.com,2013-03-10 20:08:00,
2013-03-10 14:23:00,39.0,18.4,29.94,WNW,292,8.3,-999.0,43,-99.99,,,0.07,Acu-Link.com,2013-03-10 20:23:00,
2013-03-10 14:38:00,40.8,19.5,29.93,WNW,292,6.8,-999.0,42,-99.99,,,0.07,Acu-Link.com,2013-03-10 20:38:00,
2013-03-10 14:53:00,38.3,17.2,29.94,WNW,292,15.5,-999.0,42,-99.99,,,0.07,Acu-Link.com,2013-03-10 20:53:00,
2013-03-10 15:08:00,39.6,19.0,29.95,WNW,292,15.5,-999.0,43,-99.99,,,0.07,Acu-Link.com,2013-03-10 21:08:00,
2013-03-10 15:23:00,39.4,18.8,29.96,West,270,9.9,-999.0,43,-99.99,,,0.07,Acu-Link.com,2013-03-10 21:23:00,
2013-03-10 15:38:00,39.4,17.1,29.95,West,270,7.8,-999.0,40,-99.99,,,0.07,Acu-Link.com,2013-03-10 21:38:00,
2013-03-10 16:09:00,40.8,18.4,29.95,West,270,14.5,-999.0,40,-99.99,,,0.07,Acu-Link.com,2013-03-10 22:09:00,
2013-03-10 16:24:00,40.8,18.4,29.94,West,270,6.8,-999.0,40,-99.99,,,0.07,Acu-Link.com,2013-03-10 22:24:00,
2013-03-10 16:39:00,41.0,19.1,29.94,West,270,8.9,-999.0,41,-99.99,,,0.07,Acu-Link.com,2013-03-10 22:39:00,
2013-03-10 16:54:00,41.0,19.7,29.94,West,270,8.3,-999.0,42,-99.99,,,0.07,Acu-Link.com,2013-03-10 22:54:00,
2013-03-10 17:10:00,40.3,18.5,29.94,West,270,9.4,-999.0,41,-99.99,,,0.07,Acu-Link.com,2013-03-10 23:10:00,
2013-03-10 17:25:00,40.6,18.2,29.94,West,270,10.4,-999.0,40,-99.99,,,0.07,Acu-Link.com,2013-03-10 23:25:00,
2013-03-10 17:40:00,40.5,18.1,29.96,West,270,6.3,-999.0,40,-99.99,,,0.07,Acu-Link.com,2013-03-10 23:40:00,
2013-03-10 17:55:00,40.1,18.9,29.95,WNW,292,5.8,-999.0,42,-99.99,,,0.08,Acu-Link.com,2013-03-10 23:55:00,
2013-03-10 18:10:00,39.4,18.8,29.97,West,270,8.3,-999.0,43,-99.99,,,0.08,Acu-Link.com,2013-03-11 00:10:00,
2013-03-10 18:25:00,39.0,19.0,29.97,West,270,6.8,-999.0,44,-99.99,,,0.08,Acu-Link.com,2013-03-11 00:25:00,
2013-03-10 18:41:00,36.7,17.9,29.97,WNW,292,8.9,-999.0,46,-99.99,,,0.08,Acu-Link.com,2013-03-11 00:41:00,
2013-03-10 19:11:00,32.9,16.3,29.98,South,180,3.2,-999.0,50,-99.99,,,0.08,Acu-Link.com,2013-03-11 01:11:00,
2013-03-10 19:42:00,30.0,18.2,29.98,SE,135,3.2,-999.0,61,-99.99,,,0.08,Acu-Link.com,2013-03-11 01:42:00,
2013-03-10 19:57:00,28.6,18.4,30.00,SE,135,3.2,-999.0,65,-99.99,,,0.08,Acu-Link.com,2013-03-11 01:57:00,
2013-03-10 20:12:00,27.3,17.8,30.00,SE,135,3.2,-999.0,67,-99.99,,,0.08,Acu-Link.com,2013-03-11 02:12:00,
2013-03-10 20:28:00,26.6,17.8,30.01,SE,135,3.7,-999.0,69,-99.99,,,0.08,Acu-Link.com,2013-03-11 02:28:00,
2013-03-10 20:45:00,25.9,17.5,30.03,SE,135,2.2,-999.0,70,-99.99,,,0.08,Acu-Link.com,2013-03-11 02:45:00,
2013-03-10 21:00:00,25.5,17.1,30.03,SE,135,4.7,-999.0,70,-99.99,,,0.08,Acu-Link.com,2013-03-11 03:00:00,
2013-03-10 21:15:00,25.2,17.1,30.04,SE,135,3.2,-999.0,71,-99.99,,,0.08,Acu-Link.com,2013-03-11 03:15:00,
2013-03-10 21:33:00,24.1,16.7,30.04,SE,135,0.0,-999.0,73,-99.99,,,0.08,Acu-Link.com,2013-03-11 03:33:00,
2013-03-10 21:48:00,23.7,16.0,30.04,SE,135,3.7,-999.0,72,-99.99,,,0.08,Acu-Link.com,2013-03-11 03:48:00,
2013-03-10 22:03:00,24.4,16.4,30.05,SE,135,4.2,-999.0,71,-99.99,,,0.08,Acu-Link.com,2013-03-11 04:03:00,
2013-03-10 22:18:00,23.9,15.9,30.05,SE,135,1.7,-999.0,71,-99.99,,,0.08,Acu-Link.com,2013-03-11 04:18:00,
2013-03-10 22:34:00,22.6,15.3,30.05,SE,135,2.2,-999.0,73,-99.99,,,0.08,Acu-Link.com,2013-03-11 04:34:00,
2013-03-10 22:49:00,22.1,15.4,30.05,SE,135,0.0,-999.0,75,-99.99,,,0.08,Acu-Link.com,2013-03-11 04:49:00,
2013-03-10 23:04:00,22.1,15.1,30.05,SE,135,3.2,-999.0,74,-99.99,,,0.08,Acu-Link.com,2013-03-11 05:04:00,
2013-03-10 23:19:00,21.6,14.6,30.04,SE,135,0.0,-999.0,74,-99.99,,,0.08,Acu-Link.com,2013-03-11 05:19:00,
2013-03-10 23:35:00,21.7,14.7,30.04,SE,135,3.2,-999.0,74,-99.99,,,0.08,Acu-Link.com,2013-03-11 05:35:00,
2013-03-10 23:50:00,21.2,14.2,30.04,SE,135,1.7,-999.0,74,-99.99,,,0.08,Acu-Link.com,2013-03-11 05:50:00,